Date,TemperatureHighF,TemperatureAvgF,TemperatureLowF,DewpointHighF,DewpointAvgF,DewpointLowF,HumidityHigh,HumidityAvg,HumidityLow,PressureMaxIn,PressureMinIn,WindSpeedMaxMPH,WindSpeedAvgMPH,GustSpeedMaxMPH,PrecipitationSumIn
2013-10-1,55.9,46.4,36.3,54.0,33.5,-44.5,99,79,1,28.46,28.27,13,3,13,0.00
2013-10-2,54.5,44.7,34.9,52.3,34.5,-15.3,99,78,6,28.70,28.46,13,3,14,0.00
2013-10-3,52.9,42.9,32.5,48.9,30.2,-48.3,99,73,1,28.77,28.65,15,4,20,0.00
2013-10-4,57.6,44.7,32.7,50.0,32.2,-35.1,99,75,2,28.72,28.57,13,4,13,0.00
2013-10-5,57.2,45.4,34.5,56.8,45.1,34.3,99,98,99,28.56,28.45,9,2,12,0.00
2013-10-6,57.9,50.3,42.3,57.6,50.0,42.1,99,99,99,28.69,28.51,7,1,7,0.00
2013-10-7,57.2,49.9,44.2,56.8,49.6,44.1,99,99,99,28.78,28.69,5,1,6,0.00
2013-10-8,61.2,48.2,40.6,60.8,48.0,40.5,99,99,99,28.71,28.61,8,2,9,0.00
2013-10-9,55.0,48.9,42.3,54.7,48.6,42.1,99,99,99,28.61,28.33,10,4,10,0.00
2013-10-10,63.5,52.0,44.8,63.1,51.8,44.6,99,99,99,28.32,28.16,15,7,18,0.00
2013-10-11,53.4,46.3,41.5,53.1,46.1,41.4,99,99,99,28.47,28.22,11,4,16,0.00
2013-10-12,52.0,45.7,38.5,51.6,45.5,38.3,99,99,99,28.47,28.40,9,2,9,0.00
2013-10-13,58.8,48.4,41.5,58.5,48.1,41.4,99,99,99,28.60,28.43,21,-54,21,0.00
2013-10-14,54.3,44.3,36.9,54.0,44.1,36.7,99,99,99,28.58,28.44,8,2,8,0.00
2013-10-15,54.1,47.0,41.4,53.8,46.7,41.2,99,99,99,28.44,28.15,16,4,16,0.00
2013-10-16,52.3,46.6,43.0,52.0,46.3,42.8,99,99,99,28.37,28.13,14,-6,20,0.00
2013-10-17,58.3,50.1,42.1,57.9,49.8,41.9,99,99,99,28.38,28.28,22,-480,24,0.00
2013-10-18,53.6,49.5,42.4,53.2,49.2,42.3,99,99,99,28.55,28.29,17,7,26,0.00
2013-10-19,59.0,46.3,37.2,58.6,46.1,37.0,99,99,99,28.53,28.42,14,3,14,0.00
2013-10-20,61.5,52.0,42.8,61.2,51.7,42.6,99,99,99,28.53,28.40,9,2,11,0.00
2013-10-21,66.6,57.4,52.7,66.2,57.1,52.3,99,99,99,28.55,28.43,16,7,20,0.00
2013-10-22,60.8,54.8,49.3,60.4,54.5,49.1,99,99,99,28.51,28.38,8,2,12,0.00
2013-10-23,62.1,56.4,53.1,61.7,56.1,52.7,99,99,99,28.42,28.30,9,2,13,0.00
2013-10-24,67.8,58.3,52.0,67.5,58.0,51.6,99,99,99,28.61,28.42,14,6,19,0.00
2013-10-25,56.1,51.3,46.6,55.8,51.0,46.4,99,99,99,28.56,28.47,4,0,5,0.00
2013-10-26,68.0,57.9,50.2,67.6,57.6,49.8,99,99,99,28.53,28.42,13,5,13,0.00
2013-10-27,65.5,58.6,52.9,64.9,54.3,-11.9,99,90,4,28.45,28.26,32,9,40,0.00
2013-10-28,71.6,60.5,53.1,63.5,45.2,-40.5,99,69,1,28.33,28.17,23,10,28,0.00
2013-10-29,60.3,54.6,48.6,58.3,36.5,-43.8,99,70,1,28.47,28.28,23,9,23,0.00
2013-10-30,56.3,48.8,42.4,52.7,34.1,-51.3,99,68,1,28.69,28.47,13,5,20,0.00
2013-10-31,56.7,44.1,36.1,50.9,35.6,-49.2,99,80,1,28.73,28.53,7,2,8,0.00